Time;durP1;ratioP1;P1;durP2;ratioP2;P2;SDS_P1;SDS_P2;PMS_P1;PMS_P2;Temp;Humidity;BMP_temperature;BMP_pressure;BME280_temperature;BME280_humidity;BME280_pressure;Samples;Min_cycle;Max_cycle;Signal;HPM_P1;HPM_P2
2021/09/09 00:01:27;;;;;;;17.20;13.23;;;;;;;11.64;78.01;99945.28;1747757;80;20957;-60
2021/09/09 00:03:54;;;;;;;14.73;11.07;;;;;;;11.62;77.95;99947.11;1744283;81;21042;-61
2021/09/09 00:06:20;;;;;;;14.37;10.20;;;;;;;11.56;77.79;99946.11;1743325;81;20903;-61
2021/09/09 00:08:47;;;;;;;11.13;9.43;;;;;;;11.43;77.70;99936.23;1740840;80;20923;-61
2021/09/09 00:11:14;;;;;;;13.20;9.93;;;;;;;11.31;77.71;99943.33;1746077;81;20923;-60
2021/09/09 00:13:41;;;;;;;11.40;9.17;;;;;;;11.20;77.73;99945.59;1744654;81;20920;-61
2021/09/09 00:16:07;;;;;;;12.70;9.75;;;;;;;11.09;77.88;99942.63;1748053;81;21042;-61
2021/09/09 00:18:34;;;;;;;14.57;10.60;;;;;;;11.01;78.01;99949.97;1742596;81;20919;-61
2021/09/09 00:21:01;;;;;;;13.93;10.63;;;;;;;11.01;78.45;99943.44;1741911;82;20899;-61
2021/09/09 00:23:28;;;;;;;19.85;11.00;;;;;;;10.98;78.39;99946.60;1738320;81;21496;-61
2021/09/09 00:25:54;;;;;;;17.37;12.58;;;;;;;10.97;78.51;99943.58;1737799;80;20919;-61
2021/09/09 00:28:21;;;;;;;16.63;11.17;;;;;;;11.00;78.69;99949.13;1747598;80;21239;-61
2021/09/09 00:30:51;;;;;;;18.60;12.37;;;;;;;11.01;78.72;99944.74;1745647;81;20932;-60
2021/09/09 00:33:16;;;;;;;16.15;11.88;;;;;;;11.00;78.73;99943.06;1740801;82;20923;-61
2021/09/09 00:35:43;;;;;;;16.45;13.15;;;;;;;11.01;78.75;99943.44;1744999;80;20942;-61
2021/09/09 00:38:10;;;;;;;15.60;12.77;;;;;;;10.98;78.74;99946.60;1747452;80;20940;-61
2021/09/09 00:40:37;;;;;;;18.55;12.70;;;;;;;10.97;78.99;99942.27;1742743;81;21081;-60
2021/09/09 00:43:04;;;;;;;22.33;13.43;;;;;;;11.03;79.19;99940.30;1745313;79;21467;-61
2021/09/09 00:45:30;;;;;;;14.58;11.70;;;;;;;11.06;79.13;99937.55;1741195;82;21494;-61
2021/09/09 00:47:57;;;;;;;14.85;11.90;;;;;;;11.05;78.94;99935.86;1747720;80;20922;-61
2021/09/09 00:50:24;;;;;;;18.32;11.55;;;;;;;10.98;78.83;99937.45;1737359;80;20948;-61
2021/09/09 00:52:52;;;;;;;11.08;9.85;;;;;;;10.92;78.79;99937.74;1737003;81;21968;-61
2021/09/09 00:55:20;;;;;;;10.60;9.50;;;;;;;10.85;78.83;99932.86;1742983;81;20932;-61
2021/09/09 00:57:48;;;;;;;11.70;9.78;;;;;;;10.79;78.94;99937.90;1738989;80;20922;-61
2021/09/09 01:00:16;;;;;;;13.40;11.03;;;;;;;10.74;79.09;99938.09;1734998;80;20924;-60
2021/09/09 01:02:43;;;;;;;14.33;10.78;;;;;;;10.74;79.20;99931.56;1740978;80;20927;-60
2021/09/09 01:05:10;;;;;;;14.87;11.05;;;;;;;10.75;79.29;99933.70;1746379;80;21203;-60
2021/09/09 01:07:37;;;;;;;16.62;11.78;;;;;;;10.74;79.37;99934.64;1739917;80;21417;-61
2021/09/09 01:10:05;;;;;;;15.80;11.20;;;;;;;10.75;79.43;99931.09;1737977;80;21486;-61
2021/09/09 01:12:31;;;;;;;;;;;;;;;10.78;79.53;99928.34;1743023;81;20918;-61
2021/09/09 01:14:58;;;;;;;17.43;11.80;;;;;;;10.80;79.81;99934.82;1741647;80;20117;-60
2021/09/09 01:17:24;;;;;;;18.62;13.15;;;;;;;10.84;79.81;99921.56;1737804;80;21033;-61
2021/09/09 01:19:51;;;;;;;12.10;9.80;;;;;;;10.91;79.88;99928.66;1741965;81;20958;-61
2021/09/09 01:22:17;;;;;;;12.30;10.53;;;;;;;10.91;79.52;99928.19;1741862;81;21481;-60
2021/09/09 01:24:44;;;;;;;11.03;9.93;;;;;;;10.82;79.34;99926.00;1737952;81;20914;-61
2021/09/09 01:27:11;;;;;;;10.88;9.73;;;;;;;10.80;79.53;99926.52;1741490;80;20936;-60
2021/09/09 01:29:40;;;;;;;11.50;9.68;;;;;;;10.75;79.38;99925.87;1743544;80;22031;-61
2021/09/09 01:32:08;;;;;;;13.50;9.78;;;;;;;10.69;79.38;99928.77;1739888;81;20907;-60
2021/09/09 01:34:35;;;;;;;12.28;9.25;;;;;;;10.66;79.60;99928.91;1739455;80;20887;-61
2021/09/09 01:37:03;;;;;;;15.78;8.43;;;;;;;10.64;79.55;99926.80;1739483;82;20905;-61
2021/09/09 01:39:30;;;;;;;11.63;9.55;;;;;;;10.59;79.56;99920.50;1741409;81;21454;-61
2021/09/09 01:41:59;;;;;;;11.95;9.55;;;;;;;10.55;79.62;99926.76;1744322;80;21707;-61
2021/09/09 01:44:29;;;;;;;11.50;10.03;;;;;;;10.51;79.74;99920.83;1745573;80;20893;-60
2021/09/09 01:46:57;;;;;;;12.55;10.05;;;;;;;10.48;79.83;99920.97;1743200;80;20893;-61
2021/09/09 01:49:24;;;;;;;12.53;9.90;;;;;;;10.46;79.89;99928.02;1733905;80;20964;-60
2021/09/09 01:51:50;;;;;;;13.63;10.33;;;;;;;10.44;80.08;99929.83;1729191;81;21369;-60
2021/09/09 01:54:17;;;;;;;13.97;10.50;;;;;;;10.44;80.08;99929.83;1729591;82;21297;-61
2021/09/09 01:56:44;;;;;;;17.93;10.90;;;;;;;10.43;80.07;99921.62;1726152;81;21500;-61
2021/09/09 01:59:10;;;;;;;12.93;11.50;;;;;;;10.45;80.17;99925.48;1724008;81;21462;-61
2021/09/09 02:01:37;;;;;;;22.25;13.53;;;;;;;10.48;80.41;99920.97;1731671;81;20864;-60
2021/09/09 02:04:04;;;;;;;16.85;12.33;;;;;;;10.52;80.41;99917.30;1732965;82;21580;-60
2021/09/09 02:06:31;;;;;;;14.38;10.70;;;;;;;10.62;80.84;99916.91;1734164;82;21421;-61
2021/09/09 02:08:58;;;;;;;11.70;10.28;;;;;;;10.69;80.55;99907.88;1728594;81;20905;-61
2021/09/09 02:11:25;;;;;;;12.63;9.87;;;;;;;10.68;80.34;99916.63;1703387;82;21431;-60
2021/09/09 02:13:52;;;;;;;13.75;9.75;;;;;;;10.64;80.22;99915.06;1728842;82;21517;-60
2021/09/09 02:16:27;;;;;;;12.25;10.13;;;;;;;10.60;80.23;99918.73;1729247;81;20951;-60
2021/09/09 02:18:56;;;;;;;13.43;9.95;;;;;;;10.56;80.32;99913.23;1726603;81;20951;-61
2021/09/09 02:21:41;;;;;;;12.75;10.43;;;;;;;10.53;80.37;99913.79;1729188;81;20914;-61
2021/09/09 02:24:09;;;;;;;14.95;10.80;;;;;;;10.51;80.45;99907.78;1727851;82;20911;-61
2021/09/09 02:26:35;;;;;;;15.58;11.95;;;;;;;10.49;80.63;99912.21;1730645;81;20879;-61
2021/09/09 02:29:02;;;;;;;14.00;11.78;;;;;;;10.49;80.74;99904.38;1731071;81;21435;-61
2021/09/09 02:31:28;;;;;;;18.40;12.07;;;;;;;10.52;80.89;99901.63;1732947;82;21040;-60
2021/09/09 02:33:55;;;;;;;17.80;12.37;;;;;;;10.56;80.99;99902.37;1726585;82;20957;-61
2021/09/09 02:36:22;;;;;;;14.80;11.63;;;;;;;10.61;80.97;99902.98;1731779;81;20968;-61
2021/09/09 02:38:49;;;;;;;18.80;11.73;;;;;;;10.65;80.93;99901.11;1731681;82;20971;-61
2021/09/09 02:41:15;;;;;;;14.63;11.43;;;;;;;10.66;80.94;99901.02;1730080;81;21006;-60
2021/09/09 02:43:42;;;;;;;16.48;11.83;;;;;;;10.68;81.02;99896.59;1729238;82;21047;-60
2021/09/09 02:46:09;;;;;;;18.37;11.40;;;;;;;10.72;81.08;99895.98;1727782;82;21522;-60
2021/09/09 02:48:35;;;;;;;12.37;10.63;;;;;;;10.74;81.01;99896.77;1731036;81;20911;-61
2021/09/09 02:51:02;;;;;;;17.40;11.10;;;;;;;10.74;80.99;99900.69;1730860;82;20935;-61
2021/09/09 02:53:28;;;;;;;17.23;11.33;;;;;;;10.72;80.99;99897.28;1728981;81;20951;-61
2021/09/09 02:55:56;;;;;;;14.20;10.60;;;;;;;10.73;81.06;99888.55;1731323;81;21865;-60
2021/09/09 02:58:22;;;;;;;13.38;10.63;;;;;;;10.70;80.97;99886.92;1730910;82;20927;-61
2021/09/09 03:00:49;;;;;;;13.90;9.98;;;;;;;10.68;80.99;99893.13;1728476;81;20901;-61
2021/09/09 03:03:16;;;;;;;14.55;12.13;;;;;;;10.67;81.02;99892.72;1729655;81;20974;-61
2021/09/09 03:05:42;;;;;;;13.40;11.00;;;;;;;10.68;81.35;99888.75;1727406;81;20897;-61
2021/09/09 03:08:09;;;;;;;15.73;10.97;;;;;;;10.72;81.33;99882.45;1729593;81;20959;-60
2021/09/09 03:10:36;;;;;;;13.10;10.47;;;;;;;10.69;81.21;99887.82;1723740;81;21487;-61
2021/09/09 03:13:04;;;;;;;;;;;;;;;10.67;81.24;99888.80;1729384;82;21501;-60
2021/09/09 03:15:36;;;;;;;15.28;11.08;;;;;;;10.64;81.36;99886.33;1700182;81;20097;-60
2021/09/09 03:18:07;;;;;;;13.13;10.65;;;;;;;10.61;81.33;99886.47;1728986;82;21487;-60
2021/09/09 03:20:34;;;;;;;14.58;10.23;;;;;;;10.58;81.34;99884.00;1725702;82;20977;-60
2021/09/09 03:23:03;;;;;;;15.20;11.20;;;;;;;10.54;81.31;99879.38;1698177;82;21452;-60
2021/09/09 03:25:35;;;;;;;13.15;10.75;;;;;;;10.50;81.43;99884.33;1730381;81;20899;-60
2021/09/09 03:28:07;;;;;;;12.37;10.35;;;;;;;10.51;81.46;99884.28;1725972;81;20934;-60
2021/09/09 03:30:37;;;;;;;13.98;10.50;;;;;;;10.50;81.42;99885.20;1724922;81;20951;-60
2021/09/09 03:33:25;;;;;;;14.63;10.15;;;;;;;10.46;81.42;99875.80;1704586;82;21705;-60
2021/09/09 03:35:49;;;;;;;12.55;10.05;;;;;;;10.42;81.45;99878.17;1719059;82;20983;-60
2021/09/09 03:38:17;;;;;;;11.48;9.50;;;;;;;10.38;81.46;99877.90;1727252;81;21435;-61
2021/09/09 03:40:56;;;;;;;18.52;11.18;;;;;;;10.33;81.48;99874.64;1725704;81;21434;-60
2021/09/09 03:43:25;;;;;;;19.67;10.58;;;;;;;10.28;81.49;99874.02;1727162;82;20944;-60
2021/09/09 03:45:54;;;;;;;22.50;11.05;;;;;;;10.23;81.53;99879.86;1729065;81;21896;-60
2021/09/09 03:48:22;;;;;;;18.60;11.30;;;;;;;10.18;81.54;99875.28;1724311;81;20936;-61
2021/09/09 03:50:49;;;;;;;19.73;11.10;;;;;;;10.14;81.55;99881.53;1735766;80;20914;-61
2021/09/09 03:53:16;;;;;;;18.37;11.07;;;;;;;10.12;81.61;99872.95;1747718;80;21463;-61
2021/09/09 03:55:42;;;;;;;19.73;11.97;;;;;;;10.08;81.62;99870.91;1749432;80;20986;-61
2021/09/09 03:58:09;;;;;;;20.02;11.18;;;;;;;10.04;81.72;99866.28;1750922;80;21047;-60
2021/09/09 04:00:36;;;;;;;21.70;11.60;;;;;;;10.06;81.72;99866.23;1753486;80;20916;-60
2021/09/09 04:03:03;;;;;;;15.53;11.57;;;;;;;10.05;81.77;99865.39;1750062;80;21426;-61
2021/09/09 04:05:32;;;;;;;15.75;10.53;;;;;;;10.03;81.86;99863.30;1750501;80;21432;-61
2021/09/09 04:07:59;;;;;;;18.15;12.50;;;;;;;10.03;81.97;99859.38;1755409;80;20965;-61
2021/09/09 04:10:26;;;;;;;25.02;12.85;;;;;;;10.06;82.11;99860.55;1748624;80;21041;-61
2021/09/09 04:12:52;;;;;;;18.95;13.58;;;;;;;10.07;82.13;99855.72;1746631;80;21527;-61
2021/09/09 04:15:20;;;;;;;19.60;13.47;;;;;;;10.09;82.25;99856.97;1752536;80;20947;-61
2021/09/09 04:17:47;;;;;;;20.40;13.83;;;;;;;10.13;82.24;99856.37;1747635;80;20869;-62
2021/09/09 04:20:14;;;;;;;16.15;13.40;;;;;;;10.15;82.30;99856.70;1752432;80;20985;-61
2021/09/09 04:22:40;;;;;;;41.83;15.10;;;;;;;10.21;82.41;99854.27;1752244;80;21033;-61
2021/09/09 04:25:08;;;;;;;32.78;16.23;;;;;;;10.31;82.46;99855.61;1741033;80;21474;-61
2021/09/09 04:27:35;;;;;;;35.70;17.35;;;;;;;10.44;82.53;99854.13;1739457;80;20869;-62
2021/09/09 04:30:02;;;;;;;61.53;17.62;;;;;;;10.62;82.53;99857.70;1743100;80;20961;-62
2021/09/09 04:32:29;;;;;;;;;;;;;;;10.84;82.55;99852.78;1746411;80;20971;-61
2021/09/09 04:34:55;;;;;;;25.15;15.80;;;;;;;11.13;82.78;99860.58;1743916;80;21218;-62
2021/09/09 04:37:22;;;;;;;24.75;15.10;;;;;;;11.48;82.88;99856.25;1740420;80;20953;-62
2021/09/09 04:39:49;;;;;;;38.80;15.00;;;;;;;11.83;82.65;99851.90;1739699;80;20880;-61
2021/09/09 04:42:16;;;;;;;41.30;14.70;;;;;;;12.17;82.46;99851.52;1740829;80;20940;-62
2021/09/09 04:44:43;;;;;;;34.17;13.73;;;;;;;12.57;82.36;99847.27;1743768;80;20918;-61
2021/09/09 04:47:10;;;;;;;55.25;15.72;;;;;;;12.98;82.02;99848.48;1748235;80;21045;-61
2021/09/09 04:49:36;;;;;;;54.23;15.43;;;;;;;13.38;81.67;99848.06;1748454;80;20955;-61
2021/09/09 04:52:03;;;;;;;35.30;13.75;;;;;;;13.69;81.10;99848.92;1758606;80;20902;-61
2021/09/09 04:54:30;;;;;;;84.83;16.80;;;;;;;13.97;80.76;99846.36;1762785;80;20966;-61
2021/09/09 04:56:57;;;;;;;59.88;16.65;;;;;;;14.27;80.63;99850.73;1761369;80;20947;-61
2021/09/09 04:59:24;;;;;;;79.33;14.20;;;;;;;14.60;80.75;99843.08;1759773;81;21039;-61
2021/09/09 05:01:50;;;;;;;53.63;13.88;;;;;;;15.00;80.43;99840.93;1760814;80;20901;-61
2021/09/09 05:04:19;;;;;;;45.20;14.78;;;;;;;15.33;79.91;99841.03;1760676;80;20849;-62
2021/09/09 05:06:46;;;;;;;49.67;13.13;;;;;;;15.69;79.88;99838.27;1759858;80;21634;-61
2021/09/09 05:09:13;;;;;;;22.62;12.00;;;;;;;16.03;79.59;99832.05;1760994;81;20866;-62
2021/09/09 05:11:39;;;;;;;16.75;12.43;;;;;;;16.28;79.61;99833.37;1761937;80;21026;-61
2021/09/09 05:14:07;;;;;;;22.67;13.03;;;;;;;16.70;79.90;99828.67;1762682;80;21356;-62
2021/09/09 05:16:33;;;;;;;22.13;13.53;;;;;;;17.38;80.60;99826.45;1759564;80;20963;-62
2021/09/09 05:19:00;;;;;;;19.67;14.30;;;;;;;18.05;80.53;99822.73;1761377;80;20945;-62
2021/09/09 05:21:47;;;;;;;21.07;15.60;;;;;;;18.68;80.25;99824.91;1760992;80;20904;-62
2021/09/09 05:24:10;;;;;;;30.68;16.93;;;;;;;19.27;80.02;99824.59;1748763;80;20923;-61
2021/09/09 05:26:49;;;;;;;26.07;16.80;;;;;;;19.86;79.63;99817.48;1760628;80;20919;-61
2021/09/09 05:29:16;;;;;;;20.60;13.80;;;;;;;20.33;79.15;99809.92;1760425;80;20910;-62
2021/09/09 05:31:43;;;;;;;37.63;16.07;;;;;;;20.75;78.10;99807.18;1761178;80;20902;-62
2021/09/09 05:34:10;;;;;;;;;;;;;;;21.07;78.42;99811.42;1755521;80;21470;-62
2021/09/09 05:36:36;;;;;;;43.25;15.48;;;;;;;21.50;77.73;99799.58;1761853;80;21897;-62
2021/09/09 05:39:03;;;;;;;53.75;15.45;;;;;;;21.94;77.63;99797.79;1762668;80;21488;-62
2021/09/09 05:41:30;;;;;;;53.60;15.13;;;;;;;22.23;76.94;99793.73;1762166;80;20955;-62
2021/09/09 05:43:57;;;;;;;50.40;15.10;;;;;;;22.46;76.63;99796.85;1760137;80;20911;-61
2021/09/09 05:46:23;;;;;;;43.68;14.35;;;;;;;22.60;75.79;99790.20;1757847;80;26817;-62
2021/09/09 05:48:50;;;;;;;93.35;15.55;;;;;;;22.56;74.85;99788.34;1761526;80;21049;-62
2021/09/09 05:51:17;;;;;;;125.10;18.82;;;;;;;22.42;74.22;99787.01;1744695;81;20950;-62
2021/09/09 05:53:44;;;;;;;72.85;15.90;;;;;;;22.34;74.01;99788.23;1737019;82;20978;-62
2021/09/09 05:56:11;;;;;;;;;;;;;;;22.29;73.69;99778.05;1737564;81;20973;-62
2021/09/09 05:58:38;;;;;;;100.95;18.65;;;;;;;22.33;73.34;99783.91;1736038;82;20099;-61
2021/09/09 06:01:06;;;;;;;71.37;15.78;;;;;;;22.48;73.82;99782.42;1731714;81;21024;-61
2021/09/09 06:03:36;;;;;;;29.25;12.75;;;;;;;22.64;73.46;99772.97;1733557;81;20902;-61
2021/09/09 06:06:05;;;;;;;105.30;20.95;;;;;;;22.90;73.64;99773.91;1739812;82;21536;-61
2021/09/09 06:08:36;;;;;;;121.85;22.32;;;;;;;23.27;73.10;99771.64;1739405;81;20893;-61
2021/09/09 06:11:04;;;;;;;65.28;17.02;;;;;;;23.62;72.89;99774.77;1739786;80;20958;-61
2021/09/09 06:13:32;;;;;;;46.37;14.58;;;;;;;24.09;73.44;99770.95;1734575;81;22121;-61
2021/09/09 06:15:59;;;;;;;57.27;15.70;;;;;;;24.30;72.13;99766.53;1735338;81;20935;-61
2021/09/09 06:18:27;;;;;;;48.05;14.53;;;;;;;24.27;71.49;99771.69;1739232;81;20930;-62
2021/09/09 06:20:54;;;;;;;31.10;14.03;;;;;;;24.24;71.13;99769.34;1737214;81;20960;-61
2021/09/09 06:23:21;;;;;;;25.80;12.93;;;;;;;24.25;70.90;99764.34;1731421;81;20936;-62
2021/09/09 06:25:48;;;;;;;;;;;;;;;24.29;70.66;99764.87;1738257;82;20995;-61
2021/09/09 06:28:14;;;;;;;25.52;13.45;;;;;;;24.44;70.08;99769.13;1734112;80;20087;-62
2021/09/09 06:30:41;;;;;;;;;;;;;;;24.46;70.19;99761.81;1738375;81;20915;-62
2021/09/09 06:33:08;;;;;;;26.00;13.05;;;;;;;24.61;69.33;99762.02;1727555;82;20444;-60
2021/09/09 06:35:35;;;;;;;29.65;13.20;;;;;;;24.59;69.23;99764.00;1729187;82;21478;-59
2021/09/09 06:38:28;;;;;;;33.95;14.45;;;;;;;24.63;68.88;99758.70;1707558;82;21056;-60
2021/09/09 06:40:57;;;;;;;28.80;14.83;;;;;;;24.77;68.92;99762.07;1732628;81;20903;-60
2021/09/09 06:43:24;;;;;;;29.80;14.73;;;;;;;25.30;68.75;99761.35;1739955;81;20893;-60
2021/09/09 06:45:50;;;;;;;26.12;12.23;;;;;;;25.41;68.36;99757.01;1735617;81;20898;-59
2021/09/09 06:48:16;;;;;;;;;;;;;;;25.45;67.42;99758.33;1735344;81;21493;-60
2021/09/09 06:50:43;;;;;;;40.33;13.70;;;;;;;25.45;67.04;99753.81;1742099;80;21034;-59
2021/09/09 06:53:11;;;;;;;28.20;13.08;;;;;;;25.59;66.96;99754.97;1738370;80;20921;-60
2021/09/09 06:55:38;;;;;;;32.93;11.97;;;;;;;25.53;66.49;99750.31;1737734;80;20930;-60
2021/09/09 06:58:06;;;;;;;23.92;11.50;;;;;;;25.53;66.27;99750.31;1737291;80;20885;-60
2021/09/09 07:00:33;;;;;;;30.05;12.00;;;;;;;25.35;65.56;99753.17;1741550;80;20947;-60
2021/09/09 07:03:00;;;;;;;33.10;12.15;;;;;;;25.16;65.09;99756.99;1737178;80;21012;-59
2021/09/09 07:05:32;;;;;;;;;;;;;;;25.14;64.97;99750.97;1742692;80;20911;-60
2021/09/09 07:07:58;;;;;;;19.12;10.15;;;;;;;25.14;64.31;99744.30;1744461;80;20614;-59
2021/09/09 07:10:25;;;;;;;;;;;;;;;25.05;64.91;99750.60;1744704;80;20923;-59
2021/09/09 07:12:52;;;;;;;23.70;9.63;;;;;;;24.99;64.28;99749.94;1744356;80;20129;-59
2021/09/09 07:15:18;;;;;;;15.20;9.38;;;;;;;24.73;64.19;99745.55;1735647;80;21115;-59
2021/09/09 07:17:47;;;;;;;;;;;;;;;24.71;64.64;99748.87;1713073;80;20902;-59
2021/09/09 07:20:19;;;;;;;21.50;9.93;;;;;;;24.64;63.83;99747.84;1749361;80;20128;-59
2021/09/09 07:22:50;;;;;;;16.37;8.93;;;;;;;24.45;63.85;99750.78;1748885;80;20896;-61
2021/09/09 07:25:21;;;;;;;27.50;9.78;;;;;;;24.27;63.50;99746.84;1752709;80;20975;-61
2021/09/09 07:27:49;;;;;;;19.98;10.13;;;;;;;24.11;63.28;99748.93;1746750;78;21079;-61
2021/09/09 07:30:16;;;;;;;16.93;8.95;;;;;;;23.96;63.51;99753.20;1722225;80;21461;-61
2021/09/09 07:32:43;;;;;;;20.70;9.20;;;;;;;23.90;63.32;99754.16;1742813;80;20910;-61
2021/09/09 07:35:10;;;;;;;19.95;8.40;;;;;;;23.90;63.22;99759.49;1749663;80;20904;-61
2021/09/09 07:37:38;;;;;;;35.15;9.35;;;;;;;23.95;62.89;99759.03;1740582;80;21613;-61
2021/09/09 07:40:07;;;;;;;58.13;11.57;;;;;;;23.90;62.78;99762.16;1743774;80;21679;-61
2021/09/09 07:42:34;;;;;;;26.97;8.60;;;;;;;24.00;62.74;99766.54;1744428;80;20975;-61
2021/09/09 07:45:01;;;;;;;72.05;10.85;;;;;;;24.06;62.49;99760.59;1753839;80;26368;-61
2021/09/09 07:47:28;;;;;;;20.72;7.90;;;;;;;24.12;62.30;99757.30;1749146;80;21039;-61
2021/09/09 07:49:55;;;;;;;19.25;8.15;;;;;;;23.95;61.46;99760.36;1752646;80;20908;-61
2021/09/09 07:52:22;;;;;;;13.83;7.17;;;;;;;23.81;60.97;99765.78;1757234;80;21066;-60
2021/09/09 07:54:49;;;;;;;12.50;7.53;;;;;;;23.62;60.72;99757.95;1752554;80;20958;-60
2021/09/09 07:57:16;;;;;;;30.35;7.65;;;;;;;23.43;60.78;99759.79;1754522;80;20888;-60
2021/09/09 08:00:00;;;;;;;;;;;;;;;;;;;;;
2021/09/09 08:02:15;;;;;;;11.48;7.47;;;;;;;23.43;61.01;99761.12;1750048;80;20902;-61
2021/09/09 08:04:42;;;;;;;15.93;7.97;;;;;;;23.55;60.64;99762.21;1752456;80;20976;-61
2021/09/09 08:07:09;;;;;;;30.23;8.75;;;;;;;23.48;60.45;99758.51;1759201;79;20965;-61
2021/09/09 08:09:36;;;;;;;29.12;7.67;;;;;;;23.48;60.16;99762.00;1756619;80;21005;-61
2021/09/09 08:12:04;;;;;;;21.57;7.75;;;;;;;23.49;60.21;99754.84;1749951;80;20943;-61
2021/09/09 08:14:32;;;;;;;14.10;7.67;;;;;;;23.52;59.98;99761.19;1746885;80;20967;-61
2021/09/09 08:16:58;;;;;;;8.90;7.87;;;;;;;23.46;59.95;99756.81;1749916;80;21471;-61
2021/09/09 08:19:25;;;;;;;13.58;8.60;;;;;;;23.46;59.59;99762.64;1750871;80;20952;-62
2021/09/09 08:21:51;;;;;;;39.15;8.98;;;;;;;23.40;59.36;99764.09;1756508;80;21708;-61
2021/09/09 08:24:18;;;;;;;29.23;8.53;;;;;;;23.39;59.49;99763.77;1755560;80;20909;-61
2021/09/09 08:26:45;;;;;;;11.73;7.90;;;;;;;23.36;59.24;99761.41;1759845;80;21396;-61
2021/09/09 08:29:12;;;;;;;9.95;7.45;;;;;;;23.31;59.05;99761.03;1755697;80;21134;-60
2021/09/09 08:31:38;;;;;;;;;;;;;;;23.21;58.52;99762.92;1756746;80;20956;-61
2021/09/09 08:34:05;;;;;;;12.80;7.72;;;;;;;23.12;58.44;99769.18;1753551;80;20098;-62
2021/09/09 08:36:32;;;;;;;14.13;7.95;;;;;;;23.11;58.53;99767.52;1755462;80;21419;-61
2021/09/09 08:38:59;;;;;;;10.10;7.12;;;;;;;23.17;58.63;99766.91;1751059;80;20952;-60
2021/09/09 08:41:25;;;;;;;10.98;7.40;;;;;;;23.14;58.20;99760.55;1749381;80;21194;-61
2021/09/09 08:43:52;;;;;;;18.55;8.38;;;;;;;23.14;58.35;99759.22;1750828;80;20938;-61
2021/09/09 08:46:19;;;;;;;21.00;7.72;;;;;;;23.19;58.10;99760.91;1750693;80;20916;-61
2021/09/09 08:48:48;;;;;;;12.10;7.90;;;;;;;23.27;58.18;99761.48;1748544;80;20972;-61
2021/09/09 08:51:16;;;;;;;18.27;7.12;;;;;;;23.31;58.17;99761.03;1753592;80;20959;-61
2021/09/09 08:53:47;;;;;;;51.25;10.72;;;;;;;23.50;58.09;99764.50;1758520;80;21810;-61
2021/09/09 08:56:17;;;;;;;43.25;9.30;;;;;;;23.59;57.92;99763.59;1756563;80;20892;-61
2021/09/09 08:58:43;;;;;;;12.30;7.37;;;;;;;23.62;57.39;99757.95;1755477;80;20932;-61
2021/09/09 09:01:19;;;;;;;16.62;8.20;;;;;;;23.54;56.97;99756.55;1731199;80;21460;-61
2021/09/09 09:03:56;;;;;;;22.67;7.47;;;;;;;23.50;57.23;99757.36;1753181;80;20914;-61
2021/09/09 09:06:29;;;;;;;22.85;7.95;;;;;;;23.56;57.04;99753.24;1757716;80;21079;-61
2021/09/09 09:09:08;;;;;;;11.05;6.47;;;;;;;23.62;57.19;99759.28;1753109;80;20938;-61
2021/09/09 09:11:43;;;;;;;12.80;7.00;;;;;;;23.64;56.56;99750.64;1756513;80;20951;-61
2021/09/09 09:14:13;;;;;;;11.20;6.50;;;;;;;23.60;56.21;99741.27;1736639;80;20950;-61
2021/09/09 09:16:48;;;;;;;16.60;7.25;;;;;;;23.55;56.40;99754.22;1726237;80;20962;-61
2021/09/09 09:19:18;;;;;;;28.38;7.65;;;;;;;23.68;56.60;99746.66;1731786;81;21133;-61
2021/09/09 09:21:50;;;;;;;15.25;6.92;;;;;;;23.82;56.11;99751.44;1755714;80;20904;-61
2021/09/09 09:24:19;;;;;;;19.40;6.62;;;;;;;23.85;56.26;99751.63;1755704;79;21909;-61
2021/09/09 09:27:08;;;;;;;13.75;6.33;;;;;;;23.95;55.96;99743.53;1757950;80;21496;-62
2021/09/09 09:29:35;;;;;;;58.98;8.90;;;;;;;24.04;55.95;99743.91;1755054;80;20942;-61
2021/09/09 09:32:15;;;;;;;20.32;6.70;;;;;;;24.13;55.79;99745.61;1755836;80;21119;-61
2021/09/09 09:34:47;;;;;;;11.55;5.95;;;;;;;24.14;55.31;99739.27;1758279;80;20910;-60
2021/09/09 09:37:22;;;;;;;33.85;7.47;;;;;;;24.17;55.26;99736.31;1755418;80;20959;-62
2021/09/09 09:39:50;;;;;;;13.93;5.92;;;;;;;24.24;55.30;99737.33;1753811;80;20945;-61
2021/09/09 09:42:22;;;;;;;11.28;5.95;;;;;;;24.18;54.63;99737.98;1756823;80;20984;-61
2021/09/09 09:44:48;;;;;;;9.43;5.55;;;;;;;24.09;54.67;99741.61;1757600;80;21222;-61
2021/09/09 09:47:21;;;;;;;9.98;5.58;;;;;;;24.02;54.28;99737.89;1752288;80;20866;-62
2021/09/09 09:53:18;;;;;;;20.72;5.45;;;;;;;23.92;54.10;99731.83;1612915;87;20928;-62
2021/09/09 09:55:48;;;;;;;9.30;5.62;;;;;;;23.98;53.82;99735.22;1624562;87;20952;-62
2021/09/09 09:58:16;;;;;;;10.85;5.60;;;;;;;24.00;53.54;99727.40;1606111;87;21160;-61
2021/09/09 10:00:43;;;;;;;16.37;5.78;;;;;;;23.97;53.42;99717.52;1599114;87;21596;-61
2021/09/09 10:03:10;;;;;;;27.10;6.15;;;;;;;23.95;53.28;99723.53;1617851;87;20953;-61
2021/09/09 10:05:37;;;;;;;;;;;;;;;24.00;53.01;99721.20;1601935;87;21481;-62
2021/09/09 10:08:07;;;;;;;74.00;9.73;;;;;;;24.00;52.79;99719.87;1601487;88;20104;-61
2021/09/09 10:10:35;;;;;;;62.85;7.12;;;;;;;24.06;53.01;99716.09;1586523;87;21951;-61
2021/09/09 10:13:04;;;;;;;12.43;5.45;;;;;;;24.11;52.61;99720.92;1605742;87;21530;-61
2021/09/09 10:15:31;;;;;;;27.37;6.12;;;;;;;24.15;52.51;99722.30;1608290;86;21359;-61
2021/09/09 10:17:59;;;;;;;15.95;5.92;;;;;;;24.25;52.61;99714.15;1603876;86;21020;-61
2021/09/09 10:20:40;;;;;;;11.68;5.67;;;;;;;24.29;52.32;99716.34;1602160;87;20979;-62
2021/09/09 10:23:13;;;;;;;9.15;5.17;;;;;;;24.21;51.94;99712.31;1606414;87;21075;-62
2021/09/09 10:25:57;;;;;;;7.85;5.35;;;;;;;24.13;51.71;99710.94;1611997;87;20992;-61
2021/09/09 10:31:18;;;;;;;13.72;6.20;;;;;;;24.26;51.86;99708.67;1719544;80;20894;-62
2021/09/09 10:33:51;;;;;;;9.15;5.30;;;;;;;24.29;51.59;99700.34;1745967;78;20946;-61
2021/09/09 10:36:46;;;;;;;7.80;4.80;;;;;;;24.37;51.17;99696.01;1745619;80;20998;-61
2021/09/09 10:39:36;;;;;;;15.30;5.15;;;;;;;24.39;50.86;99699.36;1738585;80;20997;-61
2021/09/09 10:42:37;;;;;;;8.83;4.80;;;;;;;24.26;50.42;99695.33;1726475;80;21528;-61
2021/09/09 10:45:07;;;;;;;5.85;4.47;;;;;;;24.15;50.26;99698.28;1725513;81;20978;-61
2021/09/09 10:47:51;;;;;;;6.47;4.97;;;;;;;24.10;50.33;99696.59;1704275;81;20974;-61
2021/09/09 10:50:24;;;;;;;9.10;4.60;;;;;;;24.07;50.00;99692.91;1713924;81;21828;-61
2021/09/09 10:53:09;;;;;;;7.40;4.67;;;;;;;24.05;50.13;99696.23;1690916;82;21539;-61
2021/09/09 10:55:39;;;;;;;15.70;5.45;;;;;;;24.13;50.09;99689.59;1721354;82;21671;-62
2021/09/09 10:58:27;;;;;;;13.05;4.83;;;;;;;24.17;49.34;99693.63;1715247;82;21560;-61
2021/09/09 11:01:00;;;;;;;11.60;5.45;;;;;;;24.16;49.51;99678.60;1719083;81;20964;-61
2021/09/09 11:03:49;;;;;;;9.95;4.28;;;;;;;24.19;49.30;99676.95;1688697;82;21169;-61
2021/09/09 11:06:25;;;;;;;7.53;4.83;;;;;;;24.24;49.28;99672.47;1716076;82;20915;-62
2021/09/09 11:09:03;;;;;;;15.48;5.40;;;;;;;24.29;49.12;99678.99;1691472;83;20970;-61
2021/09/09 11:11:31;;;;;;;9.80;4.55;;;;;;;24.30;48.67;99677.98;1712489;82;21321;-61
2021/09/09 11:14:01;;;;;;;7.50;4.05;;;;;;;24.27;48.65;99674.81;1718270;81;20932;-63
2021/09/09 11:16:35;;;;;;;13.58;4.95;;;;;;;24.27;48.34;99669.48;1717252;82;22374;-61
2021/09/09 11:19:03;;;;;;;5.83;3.70;;;;;;;24.21;48.14;99670.96;1663589;84;20912;-62
2021/09/09 11:21:37;;;;;;;25.55;5.35;;;;;;;24.20;48.06;99663.97;1682729;83;21012;-61
2021/09/09 11:24:13;;;;;;;24.95;5.60;;;;;;;24.17;48.05;99664.30;1683477;83;20888;-61
2021/09/09 11:26:44;;;;;;;16.10;4.25;;;;;;;24.21;47.61;99664.80;1718988;80;21430;-61
2021/09/09 11:29:25;;;;;;;10.15;5.05;;;;;;;24.24;47.88;99659.96;1736699;79;21635;-61
2021/09/09 11:31:55;;;;;;;13.08;4.37;;;;;;;24.28;47.65;99661.80;1731096;80;20948;-61
2021/09/09 11:34:30;;;;;;;13.05;4.55;;;;;;;24.32;47.54;99663.98;1708681;81;21008;-61
2021/09/09 11:37:04;;;;;;;13.80;5.20;;;;;;;24.37;47.46;99659.52;1729951;80;21436;-61
2021/09/09 11:39:36;;;;;;;12.28;5.12;;;;;;;24.43;47.53;99652.69;1747331;79;20903;-61
2021/09/09 11:42:07;;;;;;;27.90;5.70;;;;;;;24.44;47.20;99649.04;1749473;80;21831;-61